Flight Track Log - Related Links

Times and Time Zones

All times are in EDT time to prevent confusion due to time zone crossing. See the VIR76 flight status page for this flight to view local times or setup timezone preferences in your user account.

Time Position Orientation Groundspeed Altitude Reporting Facility
EDT Latitude Longitude Course Direction KTS MPH feet Rate Location/Type
Tue 07:39:48 PM 28.4391 -81.2957 North 167 192 600  Level FlightAware ADS-B
Tue 07:40:03 PM 28.4498 -81.2938 21° North 175 201 1,100 1,846 Climbing FlightAware ADS-B (KSFB)
Tue 07:40:14 PM 28.4570 -81.2883 43° Northeast 189 217 1,400 1,500 Climbing FlightAware ADS-B (KSFB)
Tue 07:40:19 PM 28.4601 -81.2836 54° Northeast 196 226 1,500 2,000 Climbing FlightAware ADS-B
Tue 07:40:38 PM 28.4696 -81.2657 61° Northeast 199 229 2,200 1,941 Climbing FlightAware ADS-B
Tue 07:40:53 PM 28.4753 -81.2546 61° Northeast 201 231 2,600 1,742 Climbing FlightAware ADS-B (KSFB)
Tue 07:41:09 PM 28.4833 -81.2381 61° Northeast 202 232 3,100 1,455 Climbing FlightAware ADS-B
Tue 07:41:26 PM 28.4908 -81.2234 60° Northeast 200 230 3,400 1,000 Climbing FlightAware ADS-B (KSFB)
Tue 07:41:45 PM 28.4994 -81.2061 62° Northeast 196 226 3,700 923 Climbing FlightAware ADS-B (KSFB)
Tue 07:42:05 PM 28.5065 -81.1861 76° East 201 231 4,000 1,043 Climbing FlightAware ADS-B (KSFB)
Tue 07:42:08 PM 28.5070 -81.1830 85° East 207 238 4,100 1,200 Climbing FlightAware ADS-B
Tue 07:42:15 PM 28.5070 -81.1797 97° East 215 247 4,200 1,059 Climbing FlightAware ADS-B (KSFB)
Tue 07:42:25 PM 28.5057 -81.1708 112° Southeast 227 261 4,400 968 Climbing FlightAware ADS-B (KSFB)
Tue 07:42:46 PM 28.4985 -81.1516 116° Southeast 254 292 4,700 1,050 Climbing FlightAware ADS-B (KSFB)
Tue 07:43:05 PM 28.4840 -81.1169 115° Southeast 273 314 5,100 923 Climbing FlightAware ADS-B (KSFB)
Tue 07:43:25 PM 28.4734 -81.0910 115° Southeast 292 336 5,300 1,029 Climbing FlightAware ADS-B (KSFB)
Tue 07:43:40 PM 28.4661 -81.0721 114° Southeast 297 342 5,700 1,778 Climbing FlightAware ADS-B (KSFB)
Tue 07:44:19 PM 28.4391 -81.0056 115° Southeast 333 383 6,900 1,913 Climbing FlightAware ADS-B
Tue 07:44:49 PM 28.4181 -80.9571 115° Southeast 346 398 7,900 2,160 Climbing FlightAware ADS-B
Tue 07:45:09 PM 28.4067 -80.9210 102° East 352 405 8,700 2,270 Climbing FlightAware ADS-B
Tue 07:45:26 PM 28.4048 -80.8971 90° East 351 404 9,300 2,000 Climbing FlightAware ADS-B (KSFB)
Tue 07:46:09 PM 28.4086 -80.8107 85° East 370 426 10,700 1,645 Climbing FlightAware ADS-B
Tue 07:46:28 PM 28.4173 -80.7723 70° East 385 443 11,000 1,322 Climbing FlightAware ADS-B
Tue 07:47:08 PM 28.4422 -80.6931 70° East 415 478 12,000 1,606 Climbing FlightAware ADS-B
Tue 07:47:39 PM 28.4626 -80.6302 70° East 429 494 12,900 1,917 Climbing FlightAware ADS-B
Tue 07:48:20 PM 28.4910 -80.5423 70° East 439 505 14,300 2,100 Climbing FlightAware ADS-B
Tue 07:48:59 PM 28.5206 -80.4556 69° East 450 518 15,700 2,000 Climbing FlightAware ADS-B
Tue 07:49:29 PM 28.5303 -80.4268 69° East 454 522 16,600 1,886 Climbing FlightAware ADS-B
Tue 07:50:09 PM 28.5450 -80.3839 69° East 470 541 17,900 1,939 Climbing FlightAware ADS-B
Tue 07:51:08 PM 28.6215 -80.1594 68° East 483 556 19,800 1,855 Climbing FlightAware ADS-B
Tue 07:51:59 PM 28.6645 -80.0373 68° East 495 570 21,300 1,756 Climbing FlightAware ADS-B
Tue 07:52:30 PM 28.6911 -79.9643 68° East 503 579 22,200 1,690 Climbing FlightAware ADS-B
Tue 07:53:10 PM 28.7263 -79.8652 68° East 512 589 23,300 1,567 Climbing FlightAware ADS-B
Tue 07:55:53 PM 28.9466 -79.4941 54° Northeast 542 624 27,500 1,343 Climbing FlightAware ADS-B
Tue 07:56:31 PM 28.9914 -79.4308 54° Northeast 523 602 27,800 918 Climbing Miami Center
Tue 07:57:31 PM 29.0875 -79.2906 52° Northeast 538 619 29,000 1,250 Climbing Miami Center
Tue 07:58:31 PM 29.1858 -79.1478 52° Northeast 557 641 30,300 1,050 Climbing Miami Center
Tue 07:59:31 PM 29.2944 -79.0119 47° Northeast 570 656 31,100 1,150 Climbing Miami Center
Tue 08:00:31 PM 29.3906 -78.8639 53° Northeast 576 663 32,600 1,300 Climbing Miami Center
Tue 08:01:31 PM 29.4864 -78.7156 53° Northeast 576 663 33,700 900 Climbing Miami Center
Tue 08:02:31 PM 29.5903 -78.5669 51° Northeast 581 669 34,400 650 Climbing Miami Center
Tue 08:03:31 PM 29.6922 -78.4158 52° Northeast 587 676 35,000 346 Climbing Miami Center
Tue 08:04:15 PM 29.7786 -78.2939 51° Northeast 590 679 35,000  Level Jacksonville Center
Tue 08:05:15 PM 29.8753 -78.1383 54° Northeast 590 679 35,000  Level Jacksonville Center
Tue 08:06:15 PM 29.9761 -77.9919 51° Northeast 585 673 35,000  Level Jacksonville Center
Tue 08:07:15 PM 30.0811 -77.8500 49° Northeast 585 673 35,000  Level Jacksonville Center
Tue 08:08:15 PM 30.1817 -77.6981 53° Northeast 601 692 35,000  Level Jacksonville Center
Tue 08:09:15 PM 30.2717 -77.5586 53° Northeast 604 695 35,000  Level Jacksonville Center
Tue 08:10:15 PM 30.3717 -77.4061 53° Northeast 603 694 35,000  Level Jacksonville Center
Tue 08:11:15 PM 30.4750 -77.2411 54° Northeast 597 687 35,000  Level Jacksonville Center
Tue 08:12:15 PM 30.5697 -77.1150 49° Northeast 578 665 35,000  Level Jacksonville Center
Tue 08:12:57 PM 30.6500 -77.0000 49° Northeast 592 681 35,000  Level New York Oceanic (ODAPS)
Tue 08:26:29 PM 31.9833 -75.2000 50° Northeast 589 678 35,000  Level New York Oceanic (ODAPS)
Tue 08:27:00 PM 32.1769 -74.9202 50° Northeast 592 681 35,000  Level FlightAware Transoceanic
Tue 08:27:27 PM 32.0833 -75.0333 50° Northeast 589 678 35,000  Level New York Oceanic (ODAPS)
Tue 08:37:39 PM 33.2500 -73.4000 51° Northeast 598 688 35,000  Level New York Oceanic (ODAPS)
Tue 08:44:56 PM 33.9833 -72.3000 51° Northeast 580 667 35,000  Level New York Oceanic (ODAPS)
Tue 08:45:48 PM 34.0667 -72.1667 50° Northeast 577 664 35,000 476 Level New York Oceanic (ODAPS)
Tue 08:47:02 PM 34.2000 -71.9833 51° Northeast 579 666 36,000 612 Climbing New York Oceanic (ODAPS)
Tue 08:47:26 PM 34.2000 -71.9833 51° Northeast 586 674 36,000  Level New York Oceanic (ODAPS)
Tue 08:51:41 PM 34.6667 -71.2833 35° Northeast 578 665 36,000  Level New York Oceanic (ODAPS)
Tue 09:06:05 PM 36.5667 -69.6167 36° Northeast 587 676 36,000  Level New York Oceanic (ODAPS)
Tue 09:11:18 PM 37.2667 -68.9667 47° Northeast 590 679 36,000  Level New York Oceanic (ODAPS)
Tue 09:25:06 PM 38.6333 -66.6667 46° Northeast 607 699 36,000  Level New York Oceanic (ODAPS)
Tue 09:26:21 PM 38.7667 -66.4833 46° Northeast 616 709 36,000  Level New York Oceanic (ODAPS)
Tue 09:46:37 PM 41.1333 -63.1333 48° Northeast 633 728 36,000  Level New York Oceanic (ODAPS)
Tue 09:53:50 PM 41.9833 -61.8000 55° Northeast 630 725 36,000  Level Moncton Center
Tue 09:54:00 PM 42.0457 -61.7348 49° Northeast 633 728 36,000  Level FlightAware Transoceanic
Tue 09:54:50 PM 42.1000 -61.6167 49° Northeast 630 725 36,000  Level Moncton Center
Tue 09:55:00 PM 42.1585 -61.5572 49° Northeast 633 728 36,000  Level FlightAware Transoceanic
Tue 09:55:50 PM 42.2167 -61.4167 52° Northeast 630 725 36,000  Level Moncton Center
Tue 09:56:00 PM 42.2710 -61.3789 50° Northeast 633 728 36,000  Level FlightAware Transoceanic
Tue 09:56:50 PM 42.3333 -61.2333 49° Northeast 630 725 36,000  Level Moncton Center
Tue 09:57:00 PM 42.3833 -61.2000 55° Northeast 633 728 36,000  Level FlightAware Transoceanic
Tue 09:57:50 PM 42.4333 -61.0500 53° Northeast 640 736 36,000  Level Moncton Center
Tue 09:58:00 PM 42.4870 -61.0017 55° Northeast 633 728 36,000  Level FlightAware Transoceanic
Tue 09:58:50 PM 42.5333 -60.8667 53° Northeast 630 725 36,000  Level Moncton Center
Tue 09:59:00 PM 42.5903 -60.8026 55° Northeast 633 728 36,000  Level FlightAware Transoceanic
Tue 09:59:50 PM 42.6333 -60.6500 58° Northeast 640 736 36,000  Level Moncton Center
Tue 10:00:50 PM 42.7333 -60.4667 53° Northeast 640 736 36,000  Level Moncton Center
Tue 10:01:50 PM 42.8333 -60.2500 58° Northeast 650 748 36,000  Level Moncton Center
Tue 10:02:50 PM 42.9500 -60.0667 49° Northeast 650 748 36,000  Level Moncton Center
Tue 10:03:50 PM 43.0500 -59.9000 51° Northeast 640 736 36,000  Level Moncton Center
Tue 10:04:50 PM 43.1833 -59.7000 48° Northeast 640 736 36,000  Level Moncton Center
Tue 10:05:50 PM 43.3167 -59.5333 42° Northeast 640 736 36,000  Level Moncton Center
Tue 10:06:50 PM 43.4167 -59.3500 53° Northeast 630 725 36,000  Level Moncton Center
Tue 10:08:55 PM 43.6667 -58.9833 47° Northeast 630 725 36,000 130 Level Gander Center
Tue 10:09:55 PM 43.8000 -58.8167 42° Northeast 640 736 36,400 450 Climbing Gander Center
Tue 10:10:55 PM 43.9167 -58.6500 46° Northeast 620 713 36,900 300 Climbing Gander Center
Tue 10:11:55 PM 44.0333 -58.4500 51° Northeast 620 713 37,000 50 Climbing Gander Center
Tue 10:12:55 PM 44.1500 -58.2833 46° Northeast 610 702 37,000  Level Gander Center
Tue 10:13:55 PM 44.2667 -58.1167 46° Northeast 610 702 37,000  Level Gander Center
Tue 10:14:55 PM 44.3833 -57.9500 46° Northeast 610 702 37,000  Level Gander Center
Tue 10:15:55 PM 44.5000 -57.7500 51° Northeast 600 690 37,000  Level Gander Center
Tue 10:16:50 PM 44.6000 -57.6000 47° Northeast 600 690 37,000  Level Moncton Center
Tue 10:16:55 PM 44.6000 -57.6000 47° Northeast 600 690 37,000  Level Gander Center
Tue 10:17:50 PM 44.7000 -57.4500 47° Northeast 600 690 37,000  Level Moncton Center
Tue 10:18:50 PM 44.8167 -57.2667 48° Northeast 590 679 37,000  Level Moncton Center
Tue 10:19:50 PM 44.9167 -57.1000 50° Northeast 590 679 37,000  Level Moncton Center
Tue 10:21:10 PM 45.0667 -56.8667 48° Northeast 590 679 37,000  Level Gander Center
Tue 10:22:10 PM 45.1833 -56.6667 50° Northeast 580 667 37,000  Level Gander Center
Tue 10:23:10 PM 45.2667 -56.5000 55° Northeast 600 690 37,000  Level Gander Center
Tue 10:24:10 PM 45.3667 -56.3000 55° Northeast 590 679 37,000  Level Gander Center
Tue 10:25:10 PM 45.4500 -56.1000 59° Northeast 590 679 37,000  Level Gander Center
Tue 10:26:10 PM 45.5500 -55.9000 54° Northeast 590 679 37,000  Level Gander Center
Tue 10:27:10 PM 45.6333 -55.7000 59° Northeast 600 690 37,000  Level Gander Center
Tue 10:28:10 PM 45.7167 -55.5000 59° Northeast 590 679 37,000  Level Gander Center
Tue 10:29:10 PM 45.8167 -55.3167 52° Northeast 590 679 37,000  Level Gander Center
Tue 10:30:10 PM 45.9000 -55.1167 59° Northeast 590 679 37,000  Level Gander Center
Tue 10:31:10 PM 45.9833 -54.9167 59° Northeast 580 667 37,000  Level Gander Center
Tue 10:32:10 PM 46.0833 -54.7167 54° Northeast 580 667 37,000  Level Gander Center
Tue 10:33:10 PM 46.1500 -54.5333 62° Northeast 580 667 37,000  Level Gander Center
Tue 10:34:10 PM 46.2333 -54.3333 59° Northeast 570 656 37,000  Level Gander Center
Tue 10:34:50 PM 46.3000 -54.2000 54° Northeast 570 656 37,000  Level Moncton Center
Tue 10:36:10 PM 46.4000 -53.9500 60° Northeast 570 656 37,000  Level Gander Center
Tue 10:37:10 PM 46.4833 -53.7333 61° Northeast 570 656 37,000  Level Gander Center
Tue 10:38:10 PM 46.5667 -53.5500 56° Northeast 580 667 37,000  Level Gander Center
Tue 10:39:10 PM 46.6667 -53.3500 54° Northeast 580 667 37,000  Level Gander Center
Tue 10:40:10 PM 46.7500 -53.1333 61° Northeast 580 667 37,000  Level Gander Center
Tue 10:41:10 PM 46.8333 -52.9500 56° Northeast 570 656 37,000  Level Gander Center
Tue 10:42:10 PM 46.9000 -52.7500 64° Northeast 570 656 37,000  Level Gander Center
Tue 10:43:10 PM 46.9833 -52.5500 59° Northeast 570 656 37,000  Level Gander Center
Tue 10:44:10 PM 47.0667 -52.3500 58° Northeast 560 644 37,000  Level Gander Center
Tue 10:45:10 PM 47.1333 -52.1667 62° Northeast 560 644 37,000  Level Gander Center
Tue 10:46:10 PM 47.2167 -51.9500 60° Northeast 560 644 37,000  Level Gander Center
Tue 10:47:10 PM 47.2833 -51.7667 62° Northeast 560 644 37,000  Level Gander Center
Tue 10:48:10 PM 47.3667 -51.5500 60° Northeast 560 644 37,000  Level Gander Center
Tue 10:49:10 PM 47.4333 -51.3667 62° Northeast 560 644 37,000  Level Gander Center
Tue 10:50:10 PM 47.5167 -51.1667 58° Northeast 550 633 37,000  Level Gander Center
Tue 10:51:10 PM 47.6000 -50.9833 56° Northeast 550 633 37,000  Level Gander Center
Tue 10:52:10 PM 47.6667 -50.7667 65° Northeast 550 633 37,000  Level Gander Center
Tue 10:53:10 PM 47.7500 -50.5833 56° Northeast 550 633 37,000  Level Gander Center
Tue 10:54:10 PM 47.8000 -50.3667 71° East 560 644 37,000  Level Gander Center
Tue 10:55:10 PM 47.8833 -50.1500 60° Northeast 560 644 37,000  Level Gander Center
Tue 10:56:10 PM 47.9500 -49.9500 63° Northeast 560 644 37,000  Level Gander Center
Tue 10:57:10 PM 48.0000 -49.7167 72° East 560 644 37,000  Level Gander Center
Tue 10:58:10 PM 48.0500 -49.5000 71° East 560 644 37,000  Level Gander Center
Tue 10:59:10 PM 48.1000 -49.2833 71° East 560 644 37,000  Level Gander Center
Tue 11:00:10 PM 48.1667 -49.0667 65° Northeast 570 656 37,000  Level Gander Center
Tue 11:01:10 PM 48.2167 -48.8667 69° East 560 644 37,000  Level Gander Center
Tue 11:02:10 PM 48.2667 -48.6167 73° East 560 644 37,000  Level Gander Center
Tue 11:03:10 PM 48.3167 -48.4000 71° East 570 656 37,000  Level Gander Center
Tue 11:04:10 PM 48.3667 -48.1833 71° East 560 644 37,000  Level Gander Center
Tue 11:05:10 PM 48.4333 -47.9667 65° Northeast 560 644 37,000  Level Gander Center
Tue 11:06:10 PM 48.4833 -47.7500 71° East 570 656 37,000  Level Gander Center
Tue 11:07:10 PM 48.5333 -47.5000 73° East 560 644 37,000  Level Gander Center
Tue 11:08:10 PM 48.5667 -47.2833 77° East 560 644 37,000  Level Gander Center
Tue 11:09:10 PM 48.6167 -47.0667 71° East 560 644 37,000  Level Gander Center
Tue 11:10:10 PM 48.6833 -46.8500 65° Northeast 560 644 37,000  Level Gander Center
Tue 11:11:10 PM 48.7167 -46.6333 77° East 560 644 37,000  Level Gander Center
Tue 11:13:00 PM 48.8134 -46.2544 69° East  Level FlightAware Approximate
Tue 11:20:00 PM 49.1668 -44.7917 74° East  Level FlightAware Approximate
Tue 11:21:00 PM 49.2061 -44.5764 74° East  Level FlightAware Approximate
Tue 11:22:00 PM 49.2449 -44.3607 75° East  Level FlightAware Approximate
Tue 11:23:00 PM 49.2833 -44.1447 75° East  Level FlightAware Approximate
Tue 11:24:00 PM 49.3213 -43.9283 75° East  Level FlightAware Approximate
Tue 11:25:00 PM 49.3589 -43.7116 75° East  Level FlightAware Approximate
Tue 11:26:00 PM 49.3991 -43.4959 74° East  Level FlightAware Approximate
Tue 11:27:00 PM 49.4397 -43.2801 74° East  Level FlightAware Approximate
Tue 11:28:00 PM 49.4799 -43.0640 74° East  Level FlightAware Approximate
Tue 11:29:00 PM 49.5197 -42.8475 74° East  Level FlightAware Approximate
Tue 11:30:00 PM 49.5591 -42.6307 74° East  Level FlightAware Approximate
Tue 11:31:00 PM 49.5980 -42.4135 74° East  Level FlightAware Approximate
Tue 11:32:00 PM 49.6366 -42.1960 75° East  Level FlightAware Approximate
Tue 11:33:00 PM 49.6748 -41.9781 75° East  Level FlightAware Approximate
Tue 11:34:00 PM 49.7125 -41.7599 75° East  Level FlightAware Approximate
Tue 11:35:00 PM 49.7499 -41.5414 75° East  Level FlightAware Approximate
Tue 11:36:00 PM 49.7868 -41.3225 75° East  Level FlightAware Approximate
Tue 11:37:00 PM 49.8233 -41.1033 75° East  Level FlightAware Approximate
Tue 11:38:00 PM 49.8594 -40.8838 76° East  Level FlightAware Approximate
Tue 11:39:00 PM 49.8951 -40.6639 76° East  Level FlightAware Approximate
Tue 11:40:00 PM 49.9304 -40.4437 76° East  Level FlightAware Approximate
Tue 11:41:00 PM 49.9652 -40.2232 76° East  Level FlightAware Approximate
Tue 11:42:00 PM 49.9996 -40.0024 76° East  Level FlightAware Approximate
Tue 11:43:00 PM 50.0307 -39.7802 78° East  Level FlightAware Approximate
Tue 11:44:00 PM 50.0614 -39.5578 78° East  Level FlightAware Approximate
Tue 11:45:00 PM 50.0916 -39.3350 78° East  Level FlightAware Approximate
Tue 11:46:00 PM 50.1214 -39.1120 78° East  Level FlightAware Approximate
Tue 11:47:00 PM 50.1508 -38.8887 78° East  Level FlightAware Approximate
Tue 11:48:00 PM 50.1803 -38.6653 78° East  Level FlightAware Approximate
Tue 11:49:00 PM 50.2099 -38.4418 78° East  Level FlightAware Approximate
Tue 11:50:00 PM 50.2392 -38.2181 78° East  Level FlightAware Approximate
Tue 11:51:00 PM 50.2680 -37.9940 79° East  Level FlightAware Approximate
Tue 11:52:00 PM 50.2963 -37.7697 79° East  Level FlightAware Approximate
Tue 11:53:00 PM 50.3243 -37.5452 79° East  Level FlightAware Approximate
Tue 11:54:00 PM 50.3518 -37.3203 79° East  Level FlightAware Approximate
Tue 11:55:00 PM 50.3788 -37.0952 79° East  Level FlightAware Approximate
Tue 11:56:00 PM 50.4054 -36.8699 80° East  Level FlightAware Approximate
Tue 11:57:00 PM 50.4312 -36.6442 80° East  Level FlightAware Approximate
Tue 11:58:00 PM 50.4565 -36.4182 80° East  Level FlightAware Approximate
Tue 11:59:00 PM 50.4814 -36.1920 80° East  Level FlightAware Approximate
Wed 12:00:00 AM 50.5058 -35.9656 80° East  Level FlightAware Approximate
Wed 12:01:00 AM 50.5299 -35.7389 80° East  Level FlightAware Approximate
Wed 12:02:00 AM 50.5534 -35.5120 81° East  Level FlightAware Approximate
Wed 12:03:00 AM 50.5766 -35.2849 81° East  Level FlightAware Approximate
Wed 12:04:00 AM 50.5993 -35.0575 81° East  Level FlightAware Approximate
Wed 12:05:00 AM 50.6221 -34.8302 81° East  Level FlightAware Approximate
Wed 12:06:00 AM 50.6446 -34.6025 81° East  Level FlightAware Approximate
Wed 12:07:00 AM 50.6666 -34.3747 81° East  Level FlightAware Approximate
Wed 12:08:00 AM 50.6881 -34.1466 81° East  Level FlightAware Approximate
Wed 12:09:00 AM 50.7093 -33.9184 82° East  Level FlightAware Approximate
Wed 12:10:00 AM 50.7299 -33.6899 82° East  Level FlightAware Approximate
Wed 12:11:00 AM 50.7501 -33.4613 82° East  Level FlightAware Approximate
Wed 12:12:00 AM 50.7699 -33.2324 82° East  Level FlightAware Approximate
Wed 12:13:00 AM 50.7892 -33.0034 82° East  Level FlightAware Approximate
Wed 12:14:00 AM 50.8081 -32.7741 82° East  Level FlightAware Approximate
Wed 12:15:00 AM 50.8265 -32.5447 83° East  Level FlightAware Approximate
Wed 12:16:00 AM 50.8445 -32.3151 83° East  Level FlightAware Approximate
Wed 12:17:00 AM 50.8620 -32.0854 83° East  Level FlightAware Approximate
Wed 12:18:00 AM 50.8791 -31.8554 83° East  Level FlightAware Approximate
Wed 12:19:00 AM 50.8957 -31.6253 83° East  Level FlightAware Approximate
Wed 12:20:00 AM 50.9119 -31.3951 84° East  Level FlightAware Approximate
Wed 12:21:00 AM 50.9276 -31.1646 84° East  Level FlightAware Approximate
Wed 12:22:00 AM 50.9429 -30.9340 84° East  Level FlightAware Approximate
Wed 12:23:00 AM 50.9577 -30.7033 84° East  Level FlightAware Approximate
Wed 12:24:00 AM 50.9721 -30.4724 84° East  Level FlightAware Approximate
Wed 12:25:00 AM 50.9860 -30.2414 84° East  Level FlightAware Approximate
Wed 12:26:00 AM 50.9994 -30.0103 85° East  Level FlightAware Approximate
Wed 12:27:00 AM 51.0303 -29.7834 77° East  Level FlightAware Approximate
Wed 12:28:00 AM 51.0616 -29.5564 78° East  Level FlightAware Approximate
Wed 12:29:00 AM 51.0924 -29.3290 78° East  Level FlightAware Approximate
Wed 12:30:00 AM 51.1228 -29.1014 78° East  Level FlightAware Approximate
Wed 12:31:00 AM 51.1528 -28.8735 78° East  Level FlightAware Approximate
Wed 12:32:00 AM 51.1829 -28.6455 78° East  Level FlightAware Approximate
Wed 12:33:00 AM 51.2131 -28.4174 78° East  Level FlightAware Approximate
Wed 12:34:00 AM 51.2429 -28.1889 78° East  Level FlightAware Approximate
Wed 12:35:00 AM 51.2722 -27.9602 78° East  Level FlightAware Approximate
Wed 12:36:00 AM 51.3011 -27.7312 79° East  Level FlightAware Approximate
Wed 12:37:00 AM 51.3295 -27.5019 79° East  Level FlightAware Approximate
Wed 12:38:00 AM 51.3575 -27.2723 79° East  Level FlightAware Approximate
Wed 12:39:00 AM 51.3851 -27.0425 79° East  Level FlightAware Approximate
Wed 12:40:00 AM 51.4121 -26.8123 79° East  Level FlightAware Approximate
Wed 12:41:00 AM 51.4388 -26.5819 79° East  Level FlightAware Approximate
Wed 12:42:00 AM 51.4650 -26.3513 80° East  Level FlightAware Approximate
Wed 12:43:00 AM 51.4907 -26.1204 80° East  Level FlightAware Approximate
Wed 12:44:00 AM 51.5160 -25.8892 80° East  Level FlightAware Approximate
Wed 12:45:00 AM 51.5408 -25.6577 80° East  Level FlightAware Approximate
Wed 12:46:00 AM 51.5651 -25.4260 80° East  Level FlightAware Approximate
Wed 12:47:00 AM 51.5891 -25.1941 80° East  Level FlightAware Approximate
Wed 12:48:00 AM 51.6125 -24.9619 81° East  Level FlightAware Approximate
Wed 12:49:00 AM 51.6355 -24.7295 81° East  Level FlightAware Approximate
Wed 12:50:00 AM 51.6580 -24.4968 81° East  Level FlightAware Approximate
Wed 12:51:00 AM 51.6801 -24.2640 81° East  Level FlightAware Approximate
Wed 12:52:00 AM 51.7017 -24.0309 81° East  Level FlightAware Approximate
Wed 12:53:00 AM 51.7229 -23.7975 82° East  Level FlightAware Approximate
Wed 12:54:00 AM 51.7435 -23.5640 82° East  Level FlightAware Approximate
Wed 12:55:00 AM 51.7638 -23.3302 82° East  Level FlightAware Approximate
Wed 12:56:00 AM 51.7835 -23.0963 82° East  Level FlightAware Approximate
Wed 12:57:00 AM 51.8028 -22.8621 82° East  Level FlightAware Approximate
Wed 12:58:00 AM 51.8216 -22.6278 83° East  Level FlightAware Approximate
Wed 12:59:00 AM 51.8400 -22.3932 83° East  Level FlightAware Approximate
Wed 01:00:00 AM 51.8579 -22.1584 83° East  Level FlightAware Approximate
Wed 01:01:00 AM 51.8753 -21.9235 83° East  Level FlightAware Approximate
Wed 01:02:00 AM 51.8923 -21.6884 83° East  Level FlightAware Approximate
Wed 01:03:00 AM 51.9088 -21.4531 83° East  Level FlightAware Approximate
Wed 01:04:00 AM 51.9248 -21.2177 84° East  Level FlightAware Approximate
Wed 01:05:00 AM 51.9403 -20.9820 84° East  Level FlightAware Approximate
Wed 01:06:00 AM 51.9554 -20.7463 84° East  Level FlightAware Approximate
Wed 01:07:00 AM 51.9700 -20.5103 84° East  Level FlightAware Approximate
Wed 01:08:00 AM 51.9842 -20.2743 84° East  Level FlightAware Approximate
Wed 01:09:00 AM 51.9978 -20.0380 85° East  Level FlightAware Approximate
Wed 01:10:00 AM 52.0320 -19.8077 75° East  Level FlightAware Approximate
Wed 01:11:00 AM 52.0696 -19.5781 75° East  Level FlightAware Approximate
Wed 01:12:00 AM 52.1068 -19.3482 75° East  Level FlightAware Approximate
Wed 01:13:00 AM 52.1436 -19.1178 75° East  Level FlightAware Approximate
Wed 01:14:00 AM 52.1799 -18.8871 76° East  Level FlightAware Approximate
Wed 01:15:00 AM 52.2158 -18.6560 76° East  Level FlightAware Approximate
Wed 01:16:00 AM 52.2512 -18.4246 76° East  Level FlightAware Approximate
Wed 01:17:00 AM 52.2862 -18.1928 76° East  Level FlightAware Approximate
Wed 01:18:00 AM 52.3207 -17.9606 76° East  Level FlightAware Approximate
Wed 01:19:00 AM 52.3547 -17.7280 76° East  Level FlightAware Approximate
Wed 01:20:00 AM 52.3883 -17.4951 77° East  Level FlightAware Approximate
Wed 01:21:00 AM 52.4215 -17.2619 77° East  Level FlightAware Approximate
Wed 01:22:00 AM 52.4541 -17.0283 77° East  Level FlightAware Approximate
Wed 01:23:00 AM 52.4864 -16.7943 77° East  Level FlightAware Approximate
Wed 01:24:00 AM 52.5181 -16.5600 77° East  Level FlightAware Approximate
Wed 01:25:00 AM 52.5494 -16.3254 78° East  Level FlightAware Approximate
Wed 01:26:00 AM 52.5802 -16.0905 78° East  Level FlightAware Approximate
Wed 01:27:00 AM 52.6106 -15.8552 78° East  Level FlightAware Approximate
Wed 01:28:00 AM 52.6405 -15.6196 78° East  Level FlightAware Approximate
Wed 01:29:00 AM 52.6699 -15.3836 78° East  Level FlightAware Approximate
Wed 01:30:00 AM 52.6989 -15.1474 78° East  Level FlightAware Approximate
Wed 01:31:00 AM 52.7274 -14.9109 79° East  Level FlightAware Approximate
Wed 01:32:00 AM 52.7556 -14.6741 79° East  Level FlightAware Approximate
Wed 01:33:00 AM 52.7834 -14.4370 79° East  Level FlightAware Approximate
Wed 01:34:00 AM 52.8106 -14.1995 79° East  Level FlightAware Approximate
Wed 01:35:00 AM 52.8374 -13.9619 79° East  Level FlightAware Approximate
Wed 01:36:00 AM 52.8637 -13.7239 80° East  Level FlightAware Approximate
Wed 01:37:00 AM 52.8896 -13.4856 80° East  Level FlightAware Approximate
Wed 01:38:00 AM 52.9149 -13.2470 80° East  Level FlightAware Approximate
Wed 01:39:00 AM 52.9398 -13.0082 80° East  Level FlightAware Approximate
Wed 01:40:00 AM 52.9642 -12.7691 80° East  Level FlightAware Approximate
Wed 01:41:00 AM 52.9881 -12.5297 80° East  Level FlightAware Approximate
Wed 01:42:00 AM 53.0116 -12.2901 81° East  Level FlightAware Approximate
Wed 01:43:00 AM 53.0345 -12.0502 81° East  Level FlightAware Approximate
Wed 01:44:00 AM 53.0570 -11.8100 81° East  Level FlightAware Approximate
Wed 01:45:00 AM 53.0790 -11.5696 81° East  Level FlightAware Approximate
Wed 01:46:00 AM 53.1005 -11.3290 81° East  Level FlightAware Approximate
Wed 01:47:00 AM 53.1215 -11.0881 82° East  Level FlightAware Approximate
Wed 01:47:50 AM 52.5206 -12.2401 74° East 459 528 37,000  Level FlightAware ADS-B
Wed 01:48:31 AM 52.5447 -12.0971 74° East 456 525 37,000  Level FlightAware ADS-B
Wed 01:49:05 AM 52.5637 -11.9876 74° East 453 521 37,000  Level FlightAware ADS-B
Wed 01:50:28 AM 52.6106 -11.7146 74° East 449 517 37,000  Level FlightAware ADS-B
Wed 01:51:07 AM 52.6320 -11.5869 75° East 447 514 37,000  Level FlightAware ADS-B
Wed 01:51:51 AM 52.6560 -11.4432 75° East 444 511 37,000  Level FlightAware ADS-B
Wed 01:52:31 AM 52.6774 -11.3132 75° East 442 509 37,000  Level FlightAware ADS-B
Wed 01:53:08 AM 52.6975 -11.1940 75° East 438 504 37,000  Level FlightAware ADS-B
Wed 01:53:48 AM 52.7181 -11.0657 75° East 437 503 37,000  Level FlightAware ADS-B
Wed 01:54:18 AM 52.7337 -10.9695 75° East 435 501 37,000  Level FlightAware ADS-B
Wed 01:55:09 AM 52.7604 -10.8065 75° East 434 499 37,000  Level FlightAware ADS-B
Wed 01:55:39 AM 52.7759 -10.7107 75° East 433 498 37,000  Level FlightAware ADS-B
Wed 01:56:09 AM 52.7913 -10.6116 75° East 434 499 37,000  Level FlightAware ADS-B
Wed 01:56:47 AM 52.8100 -10.4928 76° East 438 504 37,000  Level FlightAware ADS-B
Wed 01:57:17 AM 52.8253 -10.3951 76° East 442 509 37,000  Level FlightAware ADS-B
Wed 01:57:47 AM 52.8407 -10.2972 76° East 443 510 37,000  Level FlightAware ADS-B
Wed 01:58:29 AM 52.8619 -10.1591 76° East 445 512 37,000  Level FlightAware ADS-B
Wed 01:58:59 AM 52.8772 -10.0606 76° East 445 512 37,000  Level FlightAware ADS-B
Wed 01:59:29 AM 52.8923 -9.9616 76° East 444 511 37,000  Level FlightAware ADS-B
Wed 02:00:10 AM 52.9132 -9.8233 76° East 444 511 37,000  Level FlightAware ADS-B
Wed 02:00:40 AM 52.9278 -9.7279 76° East 444 511 37,000  Level FlightAware ADS-B
Wed 02:01:20 AM 52.9475 -9.5957 76° East 444 511 37,000  Level FlightAware ADS-B
Wed 02:01:59 AM 52.9671 -9.4637 76° East 445 512 37,000  Level FlightAware ADS-B
Wed 02:02:21 AM 52.9778 -9.3910 77° East 444 511 37,000  Level FlightAware ADS-B
Wed 02:02:54 AM 52.9941 -9.2812 77° East 449 517 37,000  Level FlightAware ADS-B
Wed 02:03:30 AM 53.0113 -9.1632 77° East 453 521 37,000  Level FlightAware ADS-B
Wed 02:04:00 AM 53.0262 -9.0581 77° East 455 524 37,000  Level FlightAware ADS-B
Wed 02:04:29 AM 53.0404 -8.9597 78° East 454 522 37,000  Level FlightAware ADS-B
Wed 02:05:07 AM 53.0582 -8.8340 77° East 455 524 37,000  Level FlightAware ADS-B
Wed 02:05:35 AM 53.0720 -8.7391 78° East 453 521 37,000  Level FlightAware ADS-B
Wed 02:06:07 AM 53.0871 -8.6302 77° East 456 525 37,000  Level FlightAware ADS-B
Wed 02:06:37 AM 53.1013 -8.5275 77° East 457 526 37,000  Level FlightAware ADS-B
Wed 02:07:14 AM 53.1188 -8.4014 77° East 455 524 37,000  Level FlightAware ADS-B
Wed 02:07:47 AM 53.1345 -8.2889 77° East 455 524 37,000  Level FlightAware ADS-B
Wed 02:08:23 AM 53.1511 -8.1635 77° East 454 522 37,000  Level FlightAware UK
Wed 02:08:32 AM 53.1543 -8.1422 77° East 454 522 37,000  Level FlightAware ADS-B
Wed 02:09:06 AM 53.1711 -8.0195 77° East 455 524 37,000  Level FlightAware ADS-B
Wed 02:09:37 AM 53.1848 -7.9171 78° East 456 525 37,000  Level FlightAware ADS-B
Wed 02:10:07 AM 53.1986 -7.8107 78° East 457 526 37,000  Level FlightAware ADS-B
Wed 02:10:37 AM 53.2078 -7.7422 78° East 457 526 37,000  Level FlightAware ADS-B
Wed 02:11:07 AM 53.2253 -7.6081 78° East 457 526 37,000  Level FlightAware ADS-B
Wed 02:11:42 AM 53.2415 -7.4838 78° East 458 527 37,000  Level FlightAware ADS-B
Wed 02:12:16 AM 53.2565 -7.3666 78° East 458 527 37,000  Level FlightAware ADS-B
Wed 02:12:47 AM 53.2702 -7.2595 78° East 458 527 37,000  Level FlightAware ADS-B
Wed 02:13:20 AM 53.2852 -7.1425 78° East 458 527 37,000  Level FlightAware ADS-B
Wed 02:13:43 AM 53.2951 -7.0630 79° East 457 526 37,000  Level FlightAware ADS-B
Wed 02:14:15 AM 53.3085 -6.9556 78° East 459 528 37,000  Level FlightAware ADS-B
Wed 02:14:25 AM 53.3129 -6.9210 78° East 460 529 37,000  Level FlightAware ADS-B
Wed 02:15:00 AM 53.3278 -6.7992 79° East 461 531 37,000  Level FlightAware ADS-B
Wed 02:15:09 AM 53.3321 -6.7678 79° East 459 528 37,000 -923 Level FlightAware ADS-B
Wed 02:15:39 AM 53.3445 -6.6637 79° East 458 527 36,400 -1,065 Descending FlightAware ADS-B
Wed 02:16:11 AM 53.3577 -6.5541 79° East 448 516 35,900 -968 Descending FlightAware ADS-B
Wed 02:16:41 AM 53.3702 -6.4502 79° East 437 503 35,400 -938 Descending FlightAware ADS-B
Wed 02:17:15 AM 53.3833 -6.3424 79° East 427 491 34,900 -1,091 Descending FlightAware ADS-B
Wed 02:17:47 AM 53.3955 -6.2398 79° East 421 484 34,200 -1,182 Descending FlightAware ADS-B
Wed 02:18:21 AM 53.4084 -6.1290 80° East 410 472 33,600 -1,043 Descending FlightAware ADS-B
Wed 02:18:56 AM 53.4201 -6.0276 79° East 394 453 33,000 -554 Descending FlightAware ADS-B
Wed 02:19:26 AM 53.4311 -5.9334 79° East 385 443 33,000  Level FlightAware ADS-B
Wed 02:19:58 AM 53.4416 -5.8426 79° East 387 445 33,000  Level FlightAware ADS-B
Wed 02:20:28 AM 53.4520 -5.7514 79° East 386 444 33,000  Level FlightAware ADS-B
Wed 02:21:01 AM 53.4626 -5.6573 80° East 385 443 33,000  Level FlightAware ADS-B
Wed 02:21:22 AM 53.4698 -5.5929 81° East 384 442 33,000  Level FlightAware ADS-B
Wed 02:21:54 AM 53.4781 -5.5009 86° East 392 451 33,000  Level FlightAware ADS-B
Wed 02:22:00 AM 53.4787 -5.4798 89° East 395 455 33,000 -308 Level FlightAware ADS-B
Wed 02:22:33 AM 53.4771 -5.3778 93° East 397 457 32,800 -1,182 Descending FlightAware ADS-B
Wed 02:23:06 AM 53.4740 -5.2771 93° East 393 452 31,700 -2,049 Descending FlightAware ADS-B
Wed 02:23:14 AM 53.4735 -5.2560 90° East 390 449 31,400 -2,571 Descending FlightAware ADS-B
Wed 02:23:34 AM 53.4740 -5.1959 88° East 387 445 30,500 -2,357 Descending FlightAware ADS-B
Wed 02:23:42 AM 53.4747 -5.1719 87° East 384 442 30,300 -2,053 Descending FlightAware ADS-B
Wed 02:24:12 AM 53.4783 -5.0829 86° East 381 438 29,200 -1,886 Descending FlightAware ADS-B
Wed 02:24:52 AM 53.4850 -4.9672 83° East 369 425 28,100 -1,703 Descending FlightAware ADS-B
Wed 02:25:26 AM 53.4912 -4.8719 89° East 362 417 27,100 -1,853 Descending FlightAware ADS-B (EGCW)
Wed 02:26:00 AM 53.4865 -4.7759 96° East 368 423 26,000 -1,826 Descending FlightAware ADS-B (EGCW)
Wed 02:26:35 AM 53.4802 -4.6728 96° East 362 417 25,000 -1,714 Descending FlightAware UK
Wed 02:26:35 AM 53.4808 -4.6773 95° East 361 415 25,000 -1,800 Level FlightAware ADS-B (EGCW)
Wed 02:27:05 AM 53.4768 -4.5901 95° East 356 410 24,100 -1,636 Descending FlightAware UK
Wed 02:27:08 AM 53.4767 -4.5862 94° East 357 411 24,100 -2,400 Level FlightAware ADS-B (EGCW)
Wed 02:27:15 AM 53.4764 -4.5806 95° East 360 414 23,700 -3,000 Descending FlightAware ADS-B
Wed 02:27:46 AM 53.4711 -4.4768 95° East 365 420 22,200 -2,286 Descending FlightAware ADS-B
Wed 02:28:18 AM 53.4682 -4.4214 95° East 354 407 21,300 -2,060 Descending FlightAware ADS-B
Wed 02:28:53 AM 53.4621 -4.3055 95° East 357 411 19,900 -2,127 Descending FlightAware ADS-B
Wed 02:29:37 AM 53.4549 -4.1742 95° East 352 405 18,500 -1,865 Descending FlightAware ADS-B
Wed 02:30:07 AM 53.4503 -4.0910 95° East 345 397 17,600 -1,810 Descending FlightAware ADS-B
Wed 02:30:40 AM 53.4454 -4.0040 95° East 340 391 16,600 -1,833 Descending FlightAware ADS-B
Wed 02:30:43 AM 53.4450 -3.9986 95° East 340 391 16,500 -2,063 Descending FlightAware ADS-B (EGCW)
Wed 02:31:12 AM 53.4406 -3.9213 95° East 338 389 15,500 -1,886 Descending FlightAware UK
Wed 02:31:18 AM 53.4397 -3.9073 96° East 338 389 15,400 -1,833 Descending FlightAware ADS-B
Wed 02:31:48 AM 53.4353 -3.8296 95° East 334 384 14,400 -1,946 Descending FlightAware ADS-B
Wed 02:31:55 AM 53.4340 -3.8091 96° East 334 384 14,200 -1,846 Descending FlightAware ADS-B
Wed 02:32:27 AM 53.4249 -3.7278 105° East 334 384 13,200 -1,808 Descending FlightAware ADS-B
Wed 02:33:08 AM 53.4087 -3.6285 105° East 330 380 12,000 -1,726 Descending FlightAware ADS-B
Wed 02:33:40 AM 53.3964 -3.5498 104° East 328 377 11,100 -1,500 Descending FlightAware ADS-B
Wed 02:34:12 AM 53.3837 -3.4691 104° East 318 366 10,400 -1,024 Descending FlightAware UK
Wed 02:34:21 AM 53.3807 -3.4512 106° East 310 357 10,400 -600 Level FlightAware ADS-B
Wed 02:35:02 AM 53.3651 -3.3578 106° East 289 333 9,900 -885 Descending FlightAware ADS-B (EGCC / MAN)
Wed 02:35:22 AM 53.3612 -3.3369 106° East 283 326 9,500 -1,317 Descending FlightAware ADS-B (EGCC / MAN)
Wed 02:35:43 AM 53.3545 -3.2970 106° East 282 325 9,000 -1,395 Descending FlightAware ADS-B (EGCC / MAN)
Wed 02:36:05 AM 53.3421 -3.2259 107° East 281 323 8,500 -1,231 Descending FlightAware ADS-B
Wed 02:36:22 AM 53.3357 -3.1908 107° East 278 320 8,200 -1,200 Descending FlightAware ADS-B (EGCC / MAN)
Wed 02:36:45 AM 53.3273 -3.1455 107° East 277 319 7,700 -1,227 Descending FlightAware ADS-B
Wed 02:37:06 AM 53.3198 -3.1027 105° East 272 313 7,300 -878 Descending FlightAware ADS-B
Wed 02:37:26 AM 53.3126 -3.0621 105° East 272 313 7,100 -732 Descending FlightAware ADS-B
Wed 02:37:47 AM 53.3052 -3.0194 105° East 270 311 6,800 -878 Descending FlightAware ADS-B
Wed 02:38:07 AM 53.2983 -2.9790 104° East 270 311 6,500 -857 Descending FlightAware ADS-B
Wed 02:38:36 AM 53.2887 -2.9233 106° East 267 307 6,100 -556 Descending FlightAware ADS-B
Wed 02:39:01 AM 53.2796 -2.8717 107° East 246 283 6,000 -429 Descending FlightAware ADS-B (EGCC / MAN)
Wed 02:39:18 AM 53.2741 -2.8413 107° East 239 275 5,800 -900 Descending FlightAware ADS-B (EGCC / MAN)
Wed 02:39:41 AM 53.2670 -2.8009 106° East 237 273 5,400 -1,021 Descending FlightAware ADS-B (EGCC / MAN)
Wed 02:40:05 AM 53.2596 -2.7598 106° East 241 277 5,000 -1,077 Descending FlightAware ADS-B (EGCC / MAN)
Wed 02:40:20 AM 53.2550 -2.7332 106° East 240 276 4,700 -1,167 Descending FlightAware ADS-B
Wed 02:40:41 AM 53.2490 -2.6961 102° East 232 267 4,300 -1,000 Descending FlightAware ADS-B
Wed 02:40:50 AM 53.2465 -2.6805 102° East 227 261 4,200 -692 Descending FlightAware ADS-B
Wed 02:41:07 AM 53.2422 -2.6521 104° East 218 251 4,000 -585 Descending FlightAware ADS-B (EGCC / MAN)
Wed 02:41:31 AM 53.2368 -2.6180 105° East 197 227 3,800 -409 Descending FlightAware ADS-B (EGCC / MAN)
Wed 02:41:51 AM 53.2327 -2.5853 95° East 195 224 3,700 -240 Descending FlightAware ADS-B
Wed 02:41:56 AM 53.2324 -2.5777 90° East 194 223 3,700 -286 Level FlightAware ADS-B
Wed 02:42:12 AM 53.2323 -2.5538 90° East 194 223 3,600 -486 Descending FlightAware ADS-B
Wed 02:42:33 AM 53.2333 -2.5225 76° East 192 221 3,400 -968 Descending FlightAware ADS-B
Wed 02:42:43 AM 53.2373 -2.5076 59° Northeast 190 219 3,100 -1,500 Descending FlightAware ADS-B (YWST)
Wed 02:42:49 AM 53.2400 -2.5016 52° Northeast 193 222 3,000 -1,714 Descending FlightAware ADS-B (EGCC / MAN)
Wed 02:42:57 AM 53.2362 -2.5101 52° Northeast 193 222 2,700 -1,034 Descending FlightAware ADS-B
Wed 02:43:18 AM 53.2559 -2.4677 52° Northeast 180 207 2,500 -878 Descending FlightAware ADS-B
Wed 02:43:38 AM 53.2658 -2.4478 53° Northeast 161 185 2,100 -878 Descending FlightAware ADS-B
Wed 02:43:59 AM 53.2755 -2.4281 51° Northeast 152 175 1,900 -732 Descending FlightAware ADS-B
Wed 02:44:19 AM 53.2835 -2.4110 54° Northeast 139 160 1,600 -909 Descending FlightAware ADS-B
Wed 02:44:32 AM 53.2894 -2.3992 54° Northeast 134 154 1,400 -774 Descending FlightAware ADS-B
Wed 02:44:50 AM 53.2965 -2.3847 51° Northeast 129 148 1,200 -649 Descending FlightAware ADS-B (EGCC / MAN)
Wed 02:45:09 AM 53.3032 -2.3701 55° Northeast 120 138 1,000 -692 Descending FlightAware ADS-B
Wed 02:45:42 AM 53.3159 -2.3439 51° Northeast 130 150 600 -778 Descending FlightAware ADS-B (EGCC / MAN)
Wed 02:46:03 AM 53.3238 -2.3281 51° Northeast 134 154 300 -857 Descending FlightAware ADS-B (EGCC / MAN)

Login

Don't have an account? Register now (free) for customized features, flight alerts, and more!